createdAt,value
2019-06-20T00:02:06.607Z,43.67
2019-06-20T00:04:35.064Z,43.88
2019-06-20T00:07:03.466Z,44.07
2019-06-20T00:09:32.049Z,44.99
2019-06-20T00:12:00.445Z,45.75
2019-06-20T00:14:29.061Z,45.34
2019-06-20T00:16:59.543Z,44.98
2019-06-20T00:19:27.610Z,44.34
2019-06-20T00:21:56.019Z,44.13
2019-06-20T00:24:24.444Z,43.93
2019-06-20T00:26:52.914Z,43.82
2019-06-20T00:29:21.309Z,43.64
2019-06-20T00:31:49.740Z,43.57
2019-06-20T00:34:18.139Z,43.44
2019-06-20T00:36:46.553Z,43.36
2019-06-20T00:39:15.004Z,43.17
2019-06-20T00:41:43.375Z,43.00
2019-06-20T00:44:11.779Z,43.03
2019-06-20T00:46:40.231Z,43.13
2019-06-20T00:49:08.628Z,43.09
2019-06-20T00:51:37.028Z,43.32
2019-06-20T00:54:05.454Z,43.51
2019-06-20T00:56:33.852Z,43.49
2019-06-20T00:59:02.252Z,43.61
2019-06-20T01:01:30.680Z,43.66
2019-06-20T01:03:59.076Z,43.85
2019-06-20T01:06:27.470Z,43.99
2019-06-20T01:08:55.956Z,44.08
2019-06-20T01:11:24.314Z,44.43
2019-06-20T01:13:53.029Z,44.79
2019-06-20T01:16:21.626Z,45.02
2019-06-20T01:18:50.028Z,45.31
2019-06-20T01:21:18.426Z,45.50
2019-06-20T01:23:46.854Z,45.56
2019-06-20T01:26:15.524Z,45.70
2019-06-20T01:28:43.922Z,45.67
2019-06-20T01:31:12.918Z,45.78
2019-06-20T01:33:41.364Z,45.83
2019-06-20T01:36:09.770Z,45.93
2019-06-20T01:38:38.206Z,45.96
2019-06-20T01:41:06.627Z,45.91
2019-06-20T01:43:49.379Z,45.89
2019-06-20T01:46:05.234Z,46.00
2019-06-20T01:48:33.647Z,46.08
2019-06-20T01:51:02.099Z,46.09
2019-06-20T01:53:30.694Z,45.98
2019-06-20T01:55:59.089Z,45.88
2019-06-20T01:58:27.496Z,46.05
2019-06-20T02:00:56.242Z,46.29
2019-06-20T02:03:24.630Z,46.48
2019-06-20T02:05:53.036Z,46.56
2019-06-20T02:08:21.538Z,46.52
2019-06-20T02:10:50.003Z,46.32
2019-06-20T02:13:18.397Z,46.30
2019-06-20T02:15:46.955Z,46.29
2019-06-20T02:18:15.522Z,46.31
2019-06-20T02:20:49.648Z,46.49
2019-06-20T02:23:18.235Z,46.76
2019-06-20T02:25:46.974Z,46.95
2019-06-20T02:28:15.728Z,46.84
2019-06-20T02:30:44.560Z,46.68
2019-06-20T02:33:13.136Z,46.76
2019-06-20T02:35:41.676Z,46.65
2019-06-20T02:38:10.160Z,46.70
2019-06-20T02:40:38.826Z,46.79
2019-06-20T02:43:07.660Z,46.66
2019-06-20T02:45:38.843Z,46.46
2019-06-20T02:48:07.503Z,46.53
2019-06-20T02:50:36.040Z,46.46
2019-06-20T02:53:05.599Z,46.56
2019-06-20T02:55:34.062Z,46.64
2019-06-20T02:58:02.529Z,46.90
2019-06-20T03:00:45.992Z,47.08
2019-06-20T03:03:14.396Z,47.12
2019-06-20T03:05:42.875Z,47.53
2019-06-20T03:08:11.350Z,47.60
2019-06-20T03:10:39.849Z,47.40
2019-06-20T03:13:09.519Z,47.45
2019-06-20T03:15:38.306Z,47.76
2019-06-20T03:18:06.762Z,48.06
2019-06-20T03:20:35.158Z,48.05
2019-06-20T03:23:03.847Z,48.08
2019-06-20T03:25:32.237Z,48.06
2019-06-20T03:28:00.810Z,47.95
2019-06-20T03:30:29.525Z,47.94
2019-06-20T03:32:57.923Z,48.09
2019-06-20T03:35:26.552Z,48.21
2019-06-20T03:37:55.140Z,48.26
2019-06-20T03:40:23.539Z,48.09
2019-06-20T03:42:51.938Z,48.29
2019-06-20T03:45:20.498Z,48.47
2019-06-20T03:47:48.922Z,48.71
2019-06-20T03:50:17.371Z,48.85
2019-06-20T03:52:47.634Z,49.27
2019-06-20T03:55:16.172Z,49.94
2019-06-20T03:57:44.570Z,50.72
2019-06-20T04:00:14.873Z,51.07
2019-06-20T04:02:43.258Z,51.31
2019-06-20T04:05:11.696Z,51.26
2019-06-20T04:07:41.817Z,51.32
2019-06-20T04:10:10.220Z,50.93
2019-06-20T04:12:38.621Z,51.16
2019-06-20T04:15:18.475Z,51.55
2019-06-20T04:17:37.608Z,51.82
2019-06-20T04:20:06.839Z,52.22
2019-06-20T04:22:35.381Z,52.57
2019-06-20T04:25:03.964Z,52.90
2019-06-20T04:27:32.354Z,53.33
2019-06-20T04:30:00.783Z,53.58
2019-06-20T04:32:29.180Z,53.85
2019-06-20T04:34:57.592Z,53.87
2019-06-20T04:37:26.014Z,53.77
2019-06-20T04:39:54.407Z,53.68
2019-06-20T04:42:22.807Z,53.57
2019-06-20T04:44:52.873Z,53.59
2019-06-20T04:47:21.306Z,53.43
2019-06-20T04:49:49.768Z,53.15
2019-06-20T04:52:18.242Z,52.64
2019-06-20T04:54:46.588Z,52.05
2019-06-20T04:57:15.009Z,51.50
2019-06-20T04:59:43.424Z,51.26
2019-06-20T05:02:14.853Z,51.47
2019-06-20T05:04:41.968Z,52.21
2019-06-20T05:07:21.144Z,52.45
2019-06-20T05:09:49.565Z,52.79
2019-06-20T05:12:18.131Z,54.03
2019-06-20T05:14:46.703Z,54.12
2019-06-20T05:17:15.097Z,53.52
2019-06-20T05:19:43.508Z,52.95
2019-06-20T05:22:11.949Z,52.66
2019-06-20T05:24:40.453Z,52.60
2019-06-20T05:27:08.846Z,52.21
2019-06-20T05:29:37.412Z,51.98
2019-06-20T05:32:05.808Z,51.89
2019-06-20T05:34:34.207Z,51.43
2019-06-20T05:37:02.647Z,50.94
2019-06-20T05:39:31.045Z,51.08
2019-06-20T05:41:59.454Z,51.16
2019-06-20T05:44:28.076Z,51.14
2019-06-20T05:47:11.376Z,50.94
2019-06-20T05:49:26.588Z,50.05
2019-06-20T05:51:55.012Z,49.80
2019-06-20T05:54:23.410Z,49.94
2019-06-20T05:56:51.884Z,49.72
2019-06-20T05:59:20.318Z,49.42
2019-06-20T06:01:48.723Z,49.31
2019-06-20T06:04:17.115Z,48.98
2019-06-20T06:06:45.538Z,49.09
2019-06-20T06:09:13.932Z,49.09
2019-06-20T06:11:42.334Z,49.25
2019-06-20T06:14:10.810Z,49.33
2019-06-20T06:16:39.234Z,49.11
2019-06-20T06:19:07.626Z,48.61
2019-06-20T06:21:36.130Z,48.27
2019-06-20T06:24:04.662Z,48.02
2019-06-20T06:26:33.117Z,47.74
2019-06-20T06:29:01.775Z,47.56
2019-06-20T06:31:30.451Z,47.18
2019-06-20T06:33:58.868Z,47.04
2019-06-20T06:36:27.869Z,46.92
2019-06-20T06:38:56.346Z,46.74
2019-06-20T06:41:24.740Z,46.76
2019-06-20T06:43:53.173Z,46.28
2019-06-20T06:46:21.566Z,46.21
2019-06-20T06:48:49.973Z,46.23
2019-06-20T06:51:18.459Z,46.27
2019-06-20T06:53:46.893Z,46.42
2019-06-20T06:56:15.282Z,46.77
2019-06-20T06:58:43.757Z,47.09
2019-06-20T07:01:12.228Z,46.85
2019-06-20T07:03:41.116Z,46.48
2019-06-20T07:06:09.615Z,46.48
2019-06-20T07:08:37.993Z,46.84
2019-06-20T07:11:06.461Z,46.00
2019-06-20T07:13:34.897Z,45.56
2019-06-20T07:16:04.073Z,45.35
2019-06-20T07:18:32.520Z,45.31
2019-06-20T07:21:01.282Z,44.65
2019-06-20T07:23:30.024Z,44.50
2019-06-20T07:25:58.491Z,44.38
2019-06-20T07:28:26.991Z,43.99
2019-06-20T07:30:55.385Z,43.98
2019-06-20T07:33:23.781Z,44.15
2019-06-20T07:35:52.301Z,43.87
2019-06-20T07:38:20.699Z,44.82
2019-06-20T07:40:49.201Z,45.00
2019-06-20T07:43:20.370Z,44.51
2019-06-20T07:46:02.110Z,44.20
2019-06-20T07:48:18.963Z,43.99
2019-06-20T07:50:47.617Z,43.80
2019-06-20T07:53:16.012Z,43.76
2019-06-20T07:55:44.411Z,43.45
2019-06-20T07:58:12.853Z,43.23
2019-06-20T08:00:41.290Z,43.13
2019-06-20T08:03:09.679Z,42.92
2019-06-20T08:05:38.089Z,42.92
2019-06-20T08:08:06.490Z,42.84
2019-06-20T08:10:34.963Z,42.80
2019-06-20T08:13:03.542Z,42.92
2019-06-20T08:15:31.951Z,42.90
2019-06-20T08:18:00.350Z,42.74
2019-06-20T08:20:29.046Z,42.35
2019-06-20T08:22:57.503Z,42.86
2019-06-20T08:25:25.862Z,42.79
2019-06-20T08:27:57.164Z,42.64
2019-06-20T08:30:33.164Z,42.66
2019-06-20T08:33:05.494Z,43.04
2019-06-20T08:35:32.869Z,43.01
2019-06-20T08:38:03.494Z,42.24
2019-06-20T08:40:35.430Z,41.80
2019-06-20T08:43:04.278Z,42.18
2019-06-20T08:45:33.790Z,42.05
2019-06-20T08:48:02.752Z,41.17
2019-06-20T08:50:31.871Z,41.47
2019-06-20T08:53:01.488Z,41.32
2019-06-20T08:55:30.748Z,42.36
2019-06-20T08:57:59.690Z,40.64
2019-06-20T09:00:30.599Z,41.24
2019-06-20T09:03:00.417Z,40.53
2019-06-20T09:05:30.878Z,40.97
2019-06-20T09:10:35.662Z,41.59
2019-06-20T09:13:04.532Z,41.15
2019-06-20T09:15:33.000Z,41.43
2019-06-20T09:18:02.931Z,41.79
2019-06-20T09:20:31.654Z,41.90
2019-06-20T09:23:01.105Z,41.98
2019-06-20T09:25:29.894Z,41.72
2019-06-20T09:28:00.448Z,41.05
2019-06-20T09:30:29.349Z,41.02
2019-06-20T09:32:57.934Z,40.03
2019-06-20T09:35:26.465Z,40.07
2019-06-20T09:37:55.215Z,40.46
2019-06-20T09:40:24.494Z,39.87
2019-06-20T09:42:53.015Z,39.36
2019-06-20T09:45:22.203Z,39.36
2019-06-20T09:47:52.156Z,39.10
2019-06-20T09:50:21.155Z,39.03
2019-06-20T09:52:51.323Z,38.96
2019-06-20T09:55:20.072Z,38.96
2019-06-20T09:57:49.190Z,38.77
2019-06-20T10:00:21.730Z,38.02
2019-06-20T10:02:51.974Z,38.04
2019-06-20T10:05:20.841Z,38.58
2019-06-20T10:07:50.312Z,38.19
2019-06-20T10:10:19.557Z,37.39
2019-06-20T10:12:48.118Z,37.39
2019-06-20T10:15:49.440Z,38.08
2019-06-20T10:18:17.853Z,37.68
2019-06-20T10:20:47.259Z,37.65
2019-06-20T10:23:15.751Z,37.31
2019-06-20T10:25:46.051Z,36.64
2019-06-20T10:28:14.357Z,36.56
2019-06-20T10:30:42.793Z,36.87
2019-06-20T10:33:11.197Z,35.23
2019-06-20T10:35:39.682Z,35.38
2019-06-20T10:38:08.299Z,35.37
2019-06-20T10:40:36.704Z,35.21
2019-06-20T10:43:05.631Z,35.73
2019-06-20T10:45:35.758Z,36.13
2019-06-20T10:48:04.613Z,36.19
2019-06-20T10:50:33.350Z,35.95
2019-06-20T10:53:01.810Z,36.18
2019-06-20T10:55:30.277Z,36.65
2019-06-20T10:57:58.691Z,36.10
2019-06-20T11:00:31.231Z,36.43
2019-06-20T11:02:57.959Z,36.35
2019-06-20T11:05:48.121Z,35.78
2019-06-20T11:08:16.730Z,36.66
2019-06-20T11:10:45.157Z,36.61
2019-06-20T11:13:13.649Z,35.06
2019-06-20T11:15:42.301Z,35.84
2019-06-20T11:18:10.828Z,36.38
2019-06-20T11:20:40.885Z,36.92
2019-06-20T11:23:09.457Z,35.79
2019-06-20T11:25:38.753Z,36.19
2019-06-20T11:28:08.040Z,36.21
2019-06-20T11:30:52.976Z,36.08
2019-06-20T11:33:07.073Z,36.14
2019-06-20T11:35:37.432Z,36.57
2019-06-20T11:38:05.768Z,36.50
2019-06-20T11:40:35.371Z,34.90
2019-06-20T11:43:04.379Z,34.19
2019-06-20T11:45:35.450Z,35.16
2019-06-20T11:48:03.009Z,35.32
2019-06-20T11:50:31.448Z,35.62
2019-06-20T11:52:59.837Z,35.24
2019-06-20T11:55:28.477Z,34.04
2019-06-20T11:57:56.897Z,33.97
2019-06-20T12:00:25.639Z,34.51
2019-06-20T12:02:54.038Z,34.52
2019-06-20T12:05:22.540Z,34.74
2019-06-20T12:07:51.052Z,34.34
2019-06-20T12:10:20.275Z,34.18
2019-06-20T12:12:49.120Z,34.75
2019-06-20T12:15:18.640Z,34.60
2019-06-20T12:17:47.376Z,34.79
2019-06-20T12:20:17.028Z,34.04
2019-06-20T12:22:46.617Z,34.33
2019-06-20T12:25:15.668Z,34.54
2019-06-20T12:27:45.477Z,34.60
2019-06-20T12:30:16.369Z,34.52
2019-06-20T12:32:44.884Z,34.37
2019-06-20T12:35:14.097Z,34.22
2019-06-20T12:37:42.905Z,34.09
2019-06-20T12:40:12.986Z,33.35
2019-06-20T12:42:43.047Z,32.76
2019-06-20T12:45:13.454Z,32.81
2019-06-20T12:47:42.050Z,32.91
2019-06-20T12:50:10.921Z,32.68
2019-06-20T12:52:40.734Z,32.47
2019-06-20T12:55:11.017Z,32.17
2019-06-20T12:57:40.358Z,32.30
2019-06-20T13:00:10.954Z,32.35
2019-06-20T13:02:40.485Z,32.27
2019-06-20T13:05:10.458Z,32.39
2019-06-20T13:07:40.498Z,32.07
2019-06-20T13:10:09.710Z,31.55
2019-06-20T13:12:40.670Z,31.68
2019-06-20T13:15:08.906Z,31.13
2019-06-20T13:17:38.259Z,31.27
2019-06-20T13:20:08.556Z,30.71
2019-06-20T13:22:39.004Z,30.59
2019-06-20T13:25:07.792Z,31.18
2019-06-20T13:27:36.217Z,30.94
2019-06-20T13:30:09.227Z,30.89
2019-06-20T13:32:38.434Z,30.48
2019-06-20T13:35:09.184Z,30.79
2019-06-20T13:37:38.453Z,30.35
2019-06-20T13:40:33.159Z,30.71
2019-06-20T13:43:01.622Z,30.51
2019-06-20T13:45:30.094Z,31.02
2019-06-20T13:47:58.740Z,31.17
2019-06-20T13:50:27.811Z,30.77
2019-06-20T13:52:56.220Z,30.98
2019-06-20T13:55:24.666Z,31.16
2019-06-20T13:57:53.228Z,30.23
2019-06-20T14:00:23.747Z,30.53
2019-06-20T14:02:52.246Z,31.37
2019-06-20T14:05:21.019Z,31.54
2019-06-20T14:07:52.911Z,32.37
2019-06-20T14:10:20.615Z,33.08
2019-06-20T14:12:49.029Z,34.21
2019-06-20T14:15:17.675Z,37.27
2019-06-20T14:17:47.222Z,38.82
2019-06-20T14:20:17.333Z,40.27
2019-06-20T14:22:45.741Z,42.38
2019-06-20T14:25:14.524Z,44.19
2019-06-20T14:27:43.982Z,46.66
2019-06-20T14:30:13.919Z,50.25
2019-06-20T14:32:43.290Z,53.66
2019-06-20T14:35:12.385Z,56.91
2019-06-20T14:37:43.378Z,60.06
2019-06-20T14:40:12.064Z,63.54
2019-06-20T14:42:40.459Z,65.69
2019-06-20T14:45:16.372Z,68.14
2019-06-20T14:47:44.769Z,67.19
2019-06-20T14:50:13.895Z,67.63
2019-06-20T14:52:44.582Z,67.69
2019-06-20T14:55:13.767Z,67.82
2019-06-20T14:57:44.604Z,68.61
2019-06-20T15:00:14.578Z,68.91
2019-06-20T15:02:45.380Z,68.57
2019-06-20T15:05:18.265Z,68.46
2019-06-20T15:07:47.404Z,68.43
2019-06-20T15:10:17.154Z,68.37
2019-06-20T15:12:46.420Z,68.82
2019-06-20T15:15:16.332Z,69.16
2019-06-20T15:17:46.786Z,68.96
2019-06-20T15:20:15.717Z,68.52
2019-06-20T15:22:46.746Z,68.37
2019-06-20T15:25:14.574Z,68.25
2019-06-20T15:27:43.054Z,67.96
2019-06-20T15:30:11.827Z,67.99
2019-06-20T15:32:53.340Z,68.29
2019-06-20T15:35:10.685Z,68.58
2019-06-20T15:37:39.105Z,68.44
2019-06-20T15:40:09.057Z,68.16
2019-06-20T15:42:37.692Z,67.45
2019-06-20T15:45:08.195Z,66.71
2019-06-20T15:47:36.954Z,66.37
2019-06-20T15:50:07.758Z,66.69
2019-06-20T15:52:36.341Z,65.98
2019-06-20T15:55:06.454Z,65.98
2019-06-20T15:57:34.870Z,66.38
2019-06-20T16:00:05.456Z,66.86
2019-06-20T16:02:33.837Z,66.49
2019-06-20T16:05:02.424Z,66.15
2019-06-20T16:07:30.990Z,65.38
2019-06-20T16:09:59.440Z,66.36
2019-06-20T16:12:27.850Z,66.97
2019-06-20T16:14:56.296Z,67.00
2019-06-20T16:17:24.847Z,66.05
2019-06-20T16:19:53.371Z,65.60
2019-06-20T16:22:22.071Z,66.41
2019-06-20T16:24:50.464Z,66.86
2019-06-20T16:27:18.876Z,66.72
2019-06-20T16:29:47.316Z,67.23
2019-06-20T16:32:15.731Z,65.47
2019-06-20T16:34:44.127Z,65.85
2019-06-20T16:37:12.579Z,66.32
2019-06-20T16:39:41.045Z,65.96
2019-06-20T16:42:09.525Z,65.07
2019-06-20T16:44:37.988Z,64.60
2019-06-20T16:47:06.392Z,64.48
2019-06-20T16:49:34.863Z,64.11
2019-06-20T16:52:03.356Z,63.98
2019-06-20T16:54:31.704Z,64.42
2019-06-20T16:57:00.111Z,64.54
2019-06-20T16:59:28.623Z,64.76
2019-06-20T17:01:57.192Z,65.02
2019-06-20T17:04:25.683Z,65.26
2019-06-20T17:06:54.107Z,65.00
2019-06-20T17:09:22.498Z,64.52
2019-06-20T17:11:50.966Z,63.30
2019-06-20T17:14:19.401Z,61.95
2019-06-20T17:16:47.969Z,61.26
2019-06-20T17:19:16.445Z,60.72
2019-06-20T17:21:44.853Z,60.52
2019-06-20T17:24:13.325Z,59.77
2019-06-20T17:26:41.726Z,59.55
2019-06-20T17:29:10.191Z,59.12
2019-06-20T17:31:38.657Z,59.07
2019-06-20T17:34:07.110Z,59.71
2019-06-20T17:36:35.601Z,59.43
2019-06-20T17:39:06.444Z,60.16
2019-06-20T17:41:34.946Z,60.51
2019-06-20T17:44:03.431Z,60.69
2019-06-20T17:46:31.834Z,60.93
2019-06-20T17:49:00.261Z,61.33
2019-06-20T17:51:28.695Z,61.60
2019-06-20T17:53:57.096Z,61.74
2019-06-20T17:56:25.481Z,61.50
2019-06-20T17:58:55.633Z,61.58
2019-06-20T18:01:23.986Z,61.62
2019-06-20T18:03:52.389Z,61.31
2019-06-20T18:06:20.914Z,60.96
2019-06-20T18:08:49.311Z,60.89
2019-06-20T18:11:17.736Z,60.77
2019-06-20T18:13:46.157Z,60.85
2019-06-20T18:16:24.669Z,60.93
2019-06-20T18:18:44.681Z,60.77
2019-06-20T18:21:13.194Z,60.75
2019-06-20T18:23:41.617Z,60.82
2019-06-20T18:26:10.017Z,61.08
2019-06-20T18:28:38.458Z,61.22
2019-06-20T18:31:06.917Z,61.54
2019-06-20T18:33:35.361Z,61.78
2019-06-20T18:36:04.135Z,61.66
2019-06-20T18:38:32.540Z,61.91
2019-06-20T18:41:00.942Z,62.43
2019-06-20T18:43:29.375Z,62.87
2019-06-20T18:45:57.788Z,63.09
2019-06-20T18:48:26.201Z,62.84
2019-06-20T18:50:54.791Z,62.98
2019-06-20T18:53:23.329Z,62.63
2019-06-20T18:55:51.729Z,62.30
2019-06-20T18:58:20.160Z,62.16
2019-06-20T19:00:48.567Z,62.41
2019-06-20T19:03:16.963Z,62.35
2019-06-20T19:05:45.431Z,62.29
2019-06-20T19:08:13.807Z,62.48
2019-06-20T19:10:42.306Z,62.79
2019-06-20T19:13:12.984Z,62.62
2019-06-20T19:15:40.938Z,62.52
2019-06-20T19:18:09.358Z,62.77
2019-06-20T19:20:37.792Z,62.74
2019-06-20T19:23:06.185Z,62.92
2019-06-20T19:25:34.607Z,63.22
2019-06-20T19:28:03.319Z,63.56
2019-06-20T19:30:51.651Z,63.80
2019-06-20T19:33:20.207Z,64.13
2019-06-20T19:35:48.692Z,64.42
2019-06-20T19:38:17.173Z,64.75
2019-06-20T19:40:47.823Z,64.75
2019-06-20T19:43:16.308Z,65.06
2019-06-20T19:45:45.042Z,65.18
2019-06-20T19:48:14.558Z,65.44
2019-06-20T19:50:43.609Z,65.82
2019-06-20T19:53:13.256Z,66.04
2019-06-20T19:55:42.901Z,66.36
2019-06-20T19:58:11.440Z,66.55
2019-06-20T20:00:39.984Z,66.65
2019-06-20T20:03:08.661Z,66.76
2019-06-20T20:05:37.220Z,66.80
2019-06-20T20:08:06.258Z,66.74
2019-06-20T20:10:45.900Z,66.67
2019-06-20T20:13:15.563Z,66.46
2019-06-20T20:15:45.087Z,66.41
2019-06-20T20:18:14.170Z,66.58
2019-06-20T20:20:47.364Z,66.88
2019-06-20T20:23:14.841Z,67.03
2019-06-20T20:25:43.431Z,66.91
2019-06-20T20:28:11.829Z,66.62
2019-06-20T20:30:40.401Z,66.58
2019-06-20T20:33:08.829Z,66.53
2019-06-20T20:35:37.298Z,66.67
2019-06-20T20:38:05.971Z,66.92
2019-06-20T20:40:34.388Z,67.18
2019-06-20T20:43:02.902Z,67.40
2019-06-20T20:45:31.254Z,67.51
2019-06-20T20:47:59.691Z,67.64
2019-06-20T20:50:28.088Z,67.62
2019-06-20T20:52:56.584Z,67.61
2019-06-20T20:55:24.997Z,67.55
2019-06-20T20:57:53.464Z,67.49
2019-06-20T21:00:27.176Z,67.21
2019-06-20T21:02:55.867Z,67.22
2019-06-20T21:05:24.323Z,67.16
2019-06-20T21:07:52.896Z,66.90
2019-06-20T21:10:22.173Z,66.73
2019-06-20T21:12:50.574Z,66.71
2019-06-20T21:15:19.517Z,66.69
2019-06-20T21:17:48.211Z,66.62
2019-06-20T21:20:18.944Z,66.94
2019-06-20T21:22:47.347Z,67.19
2019-06-20T21:25:15.775Z,67.25
2019-06-20T21:27:44.188Z,67.41
2019-06-20T21:30:13.323Z,67.65
2019-06-20T21:32:41.847Z,67.78
2019-06-20T21:35:10.622Z,67.80
2019-06-20T21:37:39.014Z,67.87
2019-06-20T21:40:08.091Z,67.99
2019-06-20T21:42:36.621Z,68.25
2019-06-20T21:45:09.685Z,68.46
2019-06-20T21:47:38.189Z,68.69
2019-06-20T21:50:07.362Z,68.77
2019-06-20T21:52:35.755Z,68.93
2019-06-20T21:55:05.623Z,69.07
2019-06-20T21:57:34.008Z,69.15
2019-06-20T22:00:02.683Z,69.22
2019-06-20T22:02:31.190Z,69.25
2019-06-20T22:04:59.589Z,69.23
2019-06-20T22:07:27.974Z,69.23
2019-06-20T22:09:56.410Z,69.27
2019-06-20T22:12:24.807Z,69.33
2019-06-20T22:14:53.214Z,69.35
2019-06-20T22:17:21.883Z,69.34
2019-06-20T22:19:50.275Z,69.51
2019-06-20T22:22:18.902Z,69.70
2019-06-20T22:24:47.403Z,69.76
2019-06-20T22:27:15.804Z,69.76
2019-06-20T22:29:44.198Z,69.84
2019-06-20T22:32:12.640Z,69.82
2019-06-20T22:34:41.039Z,69.80
2019-06-20T22:37:09.459Z,69.60
2019-06-20T22:39:37.881Z,69.66
2019-06-20T22:42:06.345Z,69.67
2019-06-20T22:44:35.227Z,69.61
2019-06-20T22:47:03.686Z,69.54
2019-06-20T22:49:32.087Z,69.50
2019-06-20T22:52:00.486Z,69.50
2019-06-20T22:54:29.034Z,69.51
2019-06-20T22:56:57.436Z,69.46
2019-06-20T22:59:25.837Z,69.29
2019-06-20T23:01:54.267Z,69.25
2019-06-20T23:04:22.670Z,69.35
2019-06-20T23:06:56.211Z,69.35
2019-06-20T23:09:21.264Z,69.45
2019-06-20T23:11:51.172Z,69.62
2019-06-20T23:14:19.551Z,69.77
2019-06-20T23:16:47.979Z,69.75
2019-06-20T23:19:16.378Z,69.70
2019-06-20T23:21:44.891Z,69.79
2019-06-20T23:24:13.411Z,69.70
2019-06-20T23:26:41.816Z,69.69
2019-06-20T23:29:25.309Z,69.72
2019-06-20T23:31:54.916Z,69.83
2019-06-20T23:34:23.786Z,69.74
2019-06-20T23:36:52.306Z,69.73
2019-06-20T23:39:20.774Z,69.80
2019-06-20T23:41:49.243Z,69.84
2019-06-20T23:44:17.826Z,70.05
2019-06-20T23:46:46.282Z,70.13
2019-06-20T23:49:14.690Z,70.33
2019-06-20T23:54:21.362Z,70.64
2019-06-20T23:56:49.788Z,70.90
2019-06-20T23:59:18.332Z,71.03
